Time;durP1;ratioP1;P1;durP2;ratioP2;P2;SDS_P1;SDS_P2;PMS_P1;PMS_P2;Temp;Humidity;BMP_temperature;BMP_pressure;BME280_temperature;BME280_humidity;BME280_pressure;Samples;Min_cycle;Max_cycle;Signal;HPM_P1;HPM_P2
2023/12/05 00:00:07;;;;;;;5.80;3.10;;;;;;;-2.25;100.00;101303.08;109294;1254;67086;-54
2023/12/05 00:02:39;;;;;;;6.40;3.60;;;;;;;-2.25;100.00;101299.33;109300;1253;72710;-59
2023/12/05 00:05:07;;;;;;;5.60;3.30;;;;;;;-2.27;100.00;101304.52;109285;1254;61699;-55
2023/12/05 00:07:35;;;;;;;5.80;2.90;;;;;;;-2.27;100.00;101308.81;109287;1253;58855;-54
2023/12/05 00:10:03;;;;;;;5.00;2.70;;;;;;;-2.27;100.00;101319.17;109437;1254;73430;-54
2023/12/05 00:12:31;;;;;;;6.40;3.10;;;;;;;-2.30;100.00;101320.00;109321;1253;66195;-56
2023/12/05 00:14:58;;;;;;;4.20;2.40;;;;;;;-2.30;100.00;101324.63;109432;1254;73589;-54
2023/12/05 00:17:26;;;;;;;5.00;2.90;;;;;;;-2.29;100.00;101323.38;109297;1253;59143;-54
2023/12/05 00:19:54;;;;;;;5.60;3.00;;;;;;;-2.30;100.00;101323.95;109316;1253;59037;-54
2023/12/05 00:22:23;;;;;;;6.30;3.10;;;;;;;-2.32;100.00;101324.03;109259;1254;73257;-55
2023/12/05 00:24:50;;;;;;;6.60;3.00;;;;;;;-2.33;100.00;101324.60;109296;1254;67626;-54
2023/12/05 00:27:18;;;;;;;7.00;3.50;;;;;;;-2.34;100.00;101322.79;109344;1253;72716;-55
2023/12/05 00:29:47;;;;;;;7.90;3.80;;;;;;;-2.33;100.00;101320.69;109314;1254;59329;-54
2023/12/05 00:32:14;;;;;;;6.40;3.70;;;;;;;-2.33;100.00;101315.41;109319;1254;60087;-55
2023/12/05 00:34:45;;;;;;;7.10;4.10;;;;;;;-2.32;100.00;101310.74;109287;1253;73798;-57
2023/12/05 00:37:12;;;;;;;6.10;3.60;;;;;;;-2.30;100.00;101307.77;109367;1253;66904;-54
2023/12/05 00:39:40;;;;;;;6.10;2.80;;;;;;;-2.30;100.00;101304.84;109324;1254;70819;-59
2023/12/05 00:42:08;;;;;;;6.00;3.10;;;;;;;-2.29;100.00;101303.29;109351;1254;60224;-56
2023/12/05 00:44:35;;;;;;;5.70;3.10;;;;;;;-2.26;100.00;101306.89;109320;1253;60056;-54
2023/12/05 00:47:05;;;;;;;6.90;3.40;;;;;;;-2.26;100.00;101308.75;109277;1253;74824;-56
2023/12/05 00:49:34;;;;;;;5.50;2.80;;;;;;;-2.27;100.00;101309.48;109353;1252;67062;-56
2023/12/05 00:52:02;;;;;;;6.10;3.20;;;;;;;-2.26;100.00;101305.04;109345;1253;71401;-54
2023/12/05 00:54:30;;;;;;;7.90;5.20;;;;;;;-2.24;100.00;101303.89;109345;1253;59360;-55
2023/12/05 00:56:57;;;;;;;6.60;4.10;;;;;;;-2.23;100.00;101307.95;109345;1253;58892;-58
2023/12/05 00:59:25;;;;;;;8.60;6.30;;;;;;;-2.23;100.00;101306.23;109382;1254;73324;-54
2023/12/05 01:01:52;;;;;;;9.10;6.80;;;;;;;-2.23;100.00;101299.94;109383;1253;67422;-54
2023/12/05 01:04:21;;;;;;;10.70;6.70;;;;;;;-2.24;100.00;101296.24;109364;1254;71492;-55
2023/12/05 01:06:48;;;;;;;8.60;5.40;;;;;;;-2.25;100.00;101298.33;109313;1254;58951;-59
2023/12/05 01:09:16;;;;;;;8.30;6.60;;;;;;;-2.25;100.00;101292.70;109382;1253;59011;-54
2023/12/05 01:11:44;;;;;;;8.30;6.00;;;;;;;-2.26;100.00;101289.88;109322;1253;75096;-55
2023/12/05 01:14:12;;;;;;;11.80;8.40;;;;;;;-2.27;100.00;101289.91;109461;1253;67011;-54
2023/12/05 01:16:43;;;;;;;12.90;8.70;;;;;;;-2.28;100.00;101291.98;109330;1254;72746;-54
2023/12/05 01:19:11;;;;;;;23.60;13.60;;;;;;;-2.28;100.00;101289.09;109355;1253;59558;-56
2023/12/05 01:21:39;;;;;;;43.00;26.20;;;;;;;-2.25;100.00;101290.66;109302;1254;59047;-55
2023/12/05 01:24:06;;;;;;;29.90;19.20;;;;;;;-2.24;100.00;101284.15;109369;1254;74742;-54
2023/12/05 01:26:34;;;;;;;16.80;10.40;;;;;;;-2.23;100.00;101285.11;109441;1254;67225;-53
2023/12/05 01:29:03;;;;;;;16.30;9.50;;;;;;;-2.21;100.00;101281.95;109284;1254;72756;-57
2023/12/05 01:31:30;;;;;;;54.60;29.10;;;;;;;-2.20;100.00;101275.60;109316;1254;59334;-54
2023/12/05 01:33:58;;;;;;;34.20;18.30;;;;;;;-2.18;100.00;101280.30;109323;1254;60075;-54
2023/12/05 01:36:26;;;;;;;22.60;13.00;;;;;;;-2.18;100.00;101285.07;109348;1254;74692;-54
2023/12/05 01:38:55;;;;;;;15.40;9.40;;;;;;;-2.19;100.00;101287.51;109309;1254;65804;-55
2023/12/05 01:41:23;;;;;;;14.60;9.00;;;;;;;-2.18;100.00;101293.91;109344;1253;72727;-54
2023/12/05 01:43:51;;;;;;;7.60;5.10;;;;;;;-2.19;100.00;101302.81;109313;1253;60945;-54
2023/12/05 01:46:20;;;;;;;6.70;4.10;;;;;;;-2.20;100.00;101306.59;109363;1254;60092;-55
2023/12/05 01:48:47;;;;;;;8.90;5.40;;;;;;;-2.20;100.00;101310.84;109309;1254;74113;-54
2023/12/05 01:51:15;;;;;;;7.40;4.60;;;;;;;-2.19;100.00;101310.67;109287;1253;67822;-55
2023/12/05 01:53:43;;;;;;;6.50;3.90;;;;;;;-2.19;100.00;101301.11;109427;1253;72751;-54
2023/12/05 01:56:11;;;;;;;8.40;5.70;;;;;;;-2.18;100.00;101296.48;109352;1252;59018;-54
2023/12/05 01:58:38;;;;;;;9.00;5.80;;;;;;;-2.18;100.00;101299.38;109328;1253;60037;-54
2023/12/05 02:01:07;;;;;;;8.40;5.10;;;;;;;-2.17;100.00;101306.98;109335;1252;74956;-58
2023/12/05 02:03:35;;;;;;;18.30;10.50;;;;;;;-2.18;100.00;101309.42;109393;1253;67551;-55
2023/12/05 02:06:03;;;;;;;19.90;12.00;;;;;;;-2.19;100.00;101313.37;109319;1254;72673;-55
2023/12/05 02:08:30;;;;;;;8.40;5.30;;;;;;;-2.18;100.00;101318.95;109325;1254;59435;-55
2023/12/05 02:10:58;;;;;;;7.80;4.50;;;;;;;-2.17;100.00;101318.55;109382;1253;59344;-54
2023/12/05 02:13:26;;;;;;;8.60;5.30;;;;;;;-2.16;100.00;101318.83;109346;1252;75277;-54
2023/12/05 02:16:03;;;;;;;9.70;5.90;;;;;;;-2.15;100.00;101319.29;109353;1253;66987;-54
2023/12/05 02:18:33;;;;;;;10.00;6.40;;;;;;;-2.14;100.00;101319.27;109276;1253;72826;-54
2023/12/05 02:21:09;;;;;;;10.40;6.50;;;;;;;-2.14;100.00;101318.26;109212;1253;58933;-55
2023/12/05 02:23:37;;;;;;;8.00;5.10;;;;;;;-2.16;100.00;101324.61;109337;1254;60127;-53
2023/12/05 02:26:08;;;;;;;5.90;3.80;;;;;;;-2.17;100.00;101334.36;109356;1252;75584;-53
2023/12/05 02:28:36;;;;;;;13.10;9.20;;;;;;;-2.17;100.00;101332.34;109379;1252;66923;-54
2023/12/05 02:31:05;;;;;;;13.60;8.60;;;;;;;-2.16;100.00;101328.88;109237;1253;71476;-53
2023/12/05 02:33:33;;;;;;;9.60;6.60;;;;;;;-2.14;100.00;101331.19;109281;1253;59373;-54
2023/12/05 02:36:08;;;;;;;11.00;7.90;;;;;;;-2.14;100.00;101329.14;109351;1253;60193;-54
2023/12/05 02:38:48;;;;;;;13.80;9.10;;;;;;;-2.14;100.00;101328.82;109332;1254;73520;-53
2023/12/05 02:41:19;;;;;;;14.50;9.50;;;;;;;-2.16;100.00;101335.20;109234;1253;65626;-54
2023/12/05 02:44:26;;;;;;;9.50;5.60;;;;;;;-2.16;100.00;101337.04;109367;1253;72737;-55
2023/12/05 02:46:53;;;;;;;7.50;4.50;;;;;;;-2.15;100.00;101336.34;109065;1254;59423;-54
2023/12/05 02:49:21;;;;;;;14.20;5.30;;;;;;;-2.16;100.00;101338.77;109132;1252;59081;-54
2023/12/05 02:51:49;;;;;;;12.60;7.90;;;;;;;-2.16;100.00;101339.11;109333;1252;74656;-54
2023/12/05 02:54:16;;;;;;;10.60;7.60;;;;;;;-2.15;100.00;101339.89;109324;1252;67449;-54
2023/12/05 02:56:44;;;;;;;8.70;6.00;;;;;;;-2.15;100.00;101340.77;109341;1253;72829;-54
2023/12/05 02:59:12;;;;;;;9.10;5.80;;;;;;;-2.15;100.00;101339.90;109328;1253;59575;-53
2023/12/05 03:01:42;;;;;;;9.50;6.00;;;;;;;-2.14;100.00;101341.21;109378;1253;60072;-54
2023/12/05 03:04:10;;;;;;;15.40;9.70;;;;;;;-2.14;100.00;101344.95;109352;1252;75094;-54
2023/12/05 03:06:38;;;;;;;14.20;7.00;;;;;;;-2.13;100.00;101353.59;109313;1253;65643;-54
2023/12/05 03:09:05;;;;;;;18.70;10.70;;;;;;;-2.12;100.00;101358.84;109303;1253;72764;-54
2023/12/05 03:11:33;;;;;;;14.60;7.60;;;;;;;-2.13;100.00;101362.60;109342;1253;59156;-54
2023/12/05 03:14:02;;;;;;;14.70;8.00;;;;;;;-2.12;100.00;101361.05;109303;1253;59583;-58
2023/12/05 03:16:30;;;;;;;12.60;7.70;;;;;;;-2.11;100.00;101365.79;109362;1253;74735;-54
2023/12/05 03:18:58;;;;;;;13.00;8.40;;;;;;;-2.11;100.00;101366.94;109352;1252;65668;-54
2023/12/05 03:21:26;;;;;;;9.80;5.40;;;;;;;-2.10;100.00;101370.30;109335;1253;72631;-53
2023/12/05 03:23:54;;;;;;;14.70;7.60;;;;;;;-2.09;100.00;101369.60;109288;1252;59619;-55
2023/12/05 03:26:22;;;;;;;17.10;9.60;;;;;;;-2.09;100.00;101371.63;109339;1253;59182;-54
2023/12/05 03:28:50;;;;;;;15.40;8.20;;;;;;;-2.08;100.00;101371.60;109474;1252;74911;-56
2023/12/05 03:31:18;;;;;;;14.40;7.60;;;;;;;-2.08;100.00;101370.91;109333;1252;66768;-57
2023/12/05 03:33:46;;;;;;;10.90;6.00;;;;;;;-2.09;100.00;101380.99;109328;1253;72728;-55
2023/12/05 03:36:14;;;;;;;11.30;6.50;;;;;;;-2.09;100.00;101380.63;109302;1253;60517;-54
2023/12/05 03:38:42;;;;;;;8.20;5.30;;;;;;;-2.08;100.00;101388.45;109353;1253;58999;-55
2023/12/05 03:41:09;;;;;;;7.30;4.40;;;;;;;-2.07;100.00;101390.45;109361;1252;74619;-54
2023/12/05 03:43:37;;;;;;;8.90;5.60;;;;;;;-2.07;100.00;101392.30;109351;1252;66095;-54
2023/12/05 03:46:04;;;;;;;7.00;4.00;;;;;;;-2.07;100.00;101396.55;109315;1253;73110;-59
2023/12/05 03:48:32;;;;;;;8.00;5.30;;;;;;;-2.07;100.00;101400.64;109303;1253;58914;-54
2023/12/05 03:51:00;;;;;;;7.30;4.10;;;;;;;-2.07;100.00;101399.80;109428;1252;60116;-54
2023/12/05 03:53:28;;;;;;;8.80;4.30;;;;;;;-2.05;100.00;101395.30;109290;1253;74738;-54
2023/12/05 03:55:56;;;;;;;6.60;3.60;;;;;;;-2.05;100.00;101391.00;109311;1253;66775;-57
2023/12/05 03:58:24;;;;;;;7.70;3.70;;;;;;;-2.05;100.00;101388.61;109295;1253;73002;-54
2023/12/05 04:00:51;;;;;;;8.20;5.10;;;;;;;-2.05;100.00;101387.59;109294;1253;59330;-54
2023/12/05 04:03:19;;;;;;;10.70;6.20;;;;;;;-2.07;100.00;101381.89;109462;1253;60167;-54
2023/12/05 04:05:47;;;;;;;24.20;11.40;;;;;;;-2.07;100.00;101386.83;109289;1253;75151;-54
2023/12/05 04:08:14;;;;;;;20.70;11.60;;;;;;;-2.07;100.00;101382.80;109254;1253;65833;-58
2023/12/05 04:10:42;;;;;;;15.70;8.80;;;;;;;-2.07;100.00;101389.22;109313;1253;71959;-54
2023/12/05 04:13:10;;;;;;;12.70;7.00;;;;;;;-2.07;100.00;101396.07;109282;1253;59312;-54
2023/12/05 04:15:38;;;;;;;8.70;5.60;;;;;;;-2.06;100.00;101400.95;109353;1252;60108;-54
2023/12/05 04:18:06;;;;;;;8.80;6.10;;;;;;;-2.06;100.00;101404.66;109313;1253;74763;-54
2023/12/05 04:20:34;;;;;;;7.80;4.40;;;;;;;-2.07;100.00;101405.06;109249;1252;67632;-54
2023/12/05 04:23:01;;;;;;;10.70;6.80;;;;;;;-2.08;100.00;101403.61;109314;1252;72749;-54
2023/12/05 04:25:29;;;;;;;7.50;4.40;;;;;;;-2.07;100.00;101398.77;109328;1252;59676;-54
2023/12/05 04:27:57;;;;;;;7.00;4.50;;;;;;;-2.06;100.00;101394.28;109285;1252;58875;-54
2023/12/05 04:30:24;;;;;;;7.30;3.90;;;;;;;-2.05;100.00;101395.26;109344;1253;74742;-57
2023/12/05 04:32:52;;;;;;;7.90;4.50;;;;;;;-2.04;100.00;101399.46;109328;1253;65972;-54
2023/12/05 04:35:20;;;;;;;9.10;4.90;;;;;;;-2.04;100.00;101403.90;109310;1253;72739;-54
2023/12/05 04:37:47;;;;;;;7.60;4.40;;;;;;;-2.03;100.00;101406.77;109300;1252;58971;-53
2023/12/05 04:40:15;;;;;;;9.70;5.40;;;;;;;-2.02;100.00;101407.25;109326;1253;59298;-54
2023/12/05 04:42:42;;;;;;;9.00;5.00;;;;;;;-2.03;100.00;101410.48;109432;1253;73465;-55
2023/12/05 04:45:10;;;;;;;18.60;9.90;;;;;;;-2.02;100.00;101406.38;109294;1253;67295;-54
2023/12/05 04:47:38;;;;;;;13.50;7.30;;;;;;;-2.10;100.00;101406.23;109340;1252;72257;-54
2023/12/05 04:50:06;;;;;;;10.00;5.90;;;;;;;-2.02;100.00;101407.55;109326;1253;58954;-53
2023/12/05 04:52:33;;;;;;;12.00;6.40;;;;;;;-2.00;100.00;101415.31;109356;1252;60262;-53
2023/12/05 04:55:01;;;;;;;10.50;5.20;;;;;;;-2.00;100.00;101419.92;109279;1252;75108;-53
2023/12/05 04:57:29;;;;;;;8.70;5.50;;;;;;;-2.01;100.00;101422.17;109310;1253;66930;-54
2023/12/05 04:59:57;;;;;;;12.40;6.30;;;;;;;-2.02;100.00;101420.85;109290;1254;70379;-54
2023/12/05 05:02:24;;;;;;;13.20;7.00;;;;;;;-2.05;100.00;101424.02;109310;1253;60936;-54
2023/12/05 05:04:52;;;;;;;11.50;5.50;;;;;;;-2.05;100.00;101428.14;109316;1253;59000;-54
2023/12/05 05:07:20;;;;;;;8.90;5.10;;;;;;;-2.08;100.00;101427.77;109305;1253;73457;-53
2023/12/05 05:09:48;;;;;;;9.20;5.30;;;;;;;-2.10;100.00;101428.92;109387;1253;65872;-56
2023/12/05 05:12:15;;;;;;;10.50;5.50;;;;;;;-2.15;100.00;101429.46;109347;1253;71511;-54
2023/12/05 05:14:43;;;;;;;12.10;6.20;;;;;;;-2.19;100.00;101430.01;109312;1253;59672;-54
2023/12/05 05:17:11;;;;;;;12.30;6.60;;;;;;;-2.24;100.00;101424.79;109321;1252;59062;-58
2023/12/05 05:19:38;;;;;;;9.20;5.20;;;;;;;-2.30;100.00;101427.77;109371;1253;75243;-54
2023/12/05 05:22:06;;;;;;;8.30;5.20;;;;;;;-2.36;100.00;101429.92;109320;1252;66964;-54
2023/12/05 05:24:34;;;;;;;8.70;5.20;;;;;;;-2.42;100.00;101433.30;109324;1253;72676;-54
2023/12/05 05:27:03;;;;;;;13.10;6.40;;;;;;;-2.49;100.00;101433.09;109342;1253;59470;-58
2023/12/05 05:29:30;;;;;;;12.80;6.60;;;;;;;-2.54;100.00;101432.98;109324;1252;59351;-54
2023/12/05 05:31:58;;;;;;;10.50;6.10;;;;;;;-2.55;100.00;101442.70;109353;1253;73942;-54
2023/12/05 05:34:26;;;;;;;10.60;6.50;;;;;;;-2.53;100.00;101447.06;109371;1253;65726;-54
2023/12/05 05:36:53;;;;;;;12.60;6.80;;;;;;;-2.50;100.00;101449.30;109353;1253;72714;-54
2023/12/05 05:39:21;;;;;;;12.40;7.20;;;;;;;-2.48;100.00;101448.71;109316;1252;59074;-58
2023/12/05 05:41:49;;;;;;;11.30;6.30;;;;;;;-2.49;100.00;101452.65;109332;1252;60085;-55
2023/12/05 05:44:16;;;;;;;11.80;6.60;;;;;;;-2.51;100.00;101459.56;109324;1252;74826;-54
2023/12/05 05:46:44;;;;;;;11.00;6.00;;;;;;;-2.53;100.00;101459.14;109313;1254;67078;-56
2023/12/05 05:49:11;;;;;;;10.10;5.10;;;;;;;-2.54;100.00;101463.98;109363;1253;71165;-55
2023/12/05 05:51:39;;;;;;;10.20;6.00;;;;;;;-2.57;100.00;101464.29;109303;1252;59009;-55
2023/12/05 05:54:07;;;;;;;11.20;6.10;;;;;;;-2.61;100.00;101463.58;109334;1254;60269;-54
2023/12/05 05:56:39;;;;;;;12.20;6.80;;;;;;;-2.63;100.00;101465.91;109345;1252;73448;-54
2023/12/05 05:59:06;;;;;;;12.50;7.70;;;;;;;-2.66;100.00;101469.76;109374;1253;66837;-54
2023/12/05 06:01:34;;;;;;;12.50;7.20;;;;;;;-2.66;100.00;101472.84;109246;1253;74554;-54
2023/12/05 06:04:02;;;;;;;14.50;7.20;;;;;;;-2.65;100.00;101477.39;109331;1253;58976;-54
2023/12/05 06:06:31;;;;;;;14.10;7.50;;;;;;;-2.62;100.00;101478.64;109402;1253;59998;-54
2023/12/05 06:08:59;;;;;;;13.70;7.30;;;;;;;-2.53;100.00;101481.63;109399;1252;73739;-54
2023/12/05 06:11:26;;;;;;;13.10;7.40;;;;;;;-2.48;100.00;101480.38;109309;1253;65718;-59
2023/12/05 06:13:54;;;;;;;15.10;7.80;;;;;;;-2.44;100.00;101483.56;109335;1252;71717;-55
2023/12/05 06:16:22;;;;;;;12.40;7.10;;;;;;;-2.40;100.00;101486.30;109352;1253;59638;-55
2023/12/05 06:18:49;;;;;;;13.30;7.10;;;;;;;-2.34;100.00;101483.48;109366;1252;59018;-54
2023/12/05 06:21:17;;;;;;;15.60;6.90;;;;;;;-2.19;100.00;101485.34;109377;1252;73847;-54
2023/12/05 06:23:45;;;;;;;11.90;6.40;;;;;;;-1.82;100.00;101483.11;109333;1253;67195;-54
2023/12/05 06:26:13;;;;;;;10.40;6.80;;;;;;;-1.23;100.00;101484.80;109320;1253;73193;-54
2023/12/05 06:28:40;;;;;;;9.00;5.20;;;;;;;-0.64;100.00;101486.05;109385;1252;59431;-54
2023/12/05 06:31:08;;;;;;;9.30;5.50;;;;;;;-0.19;100.00;101483.84;109387;1253;60100;-54
2023/12/05 06:33:36;;;;;;;9.60;6.50;;;;;;;0.34;100.00;101485.15;109333;1253;74671;-54
2023/12/05 06:36:04;;;;;;;10.00;6.50;;;;;;;0.97;100.00;101473.95;109309;1253;65670;-57
2023/12/05 06:38:32;;;;;;;10.30;5.70;;;;;;;1.59;100.00;101465.07;109355;1253;72694;-54
2023/12/05 06:40:59;;;;;;;10.30;6.60;;;;;;;2.19;100.00;101457.80;109346;1252;59109;-54
2023/12/05 06:43:27;;;;;;;8.90;5.50;;;;;;;2.77;100.00;101446.80;109352;1252;59000;-54
2023/12/05 06:45:54;;;;;;;10.50;5.40;;;;;;;3.31;100.00;101442.41;109341;1252;74101;-58
2023/12/05 06:48:22;;;;;;;7.90;4.50;;;;;;;3.67;100.00;101433.66;109375;1253;65656;-55
2023/12/05 06:50:50;;;;;;;7.10;4.60;;;;;;;3.92;100.00;101430.19;109321;1253;71365;-55
2023/12/05 06:53:17;;;;;;;7.30;5.00;;;;;;;4.15;100.00;101425.40;109350;1252;59332;-56
2023/12/05 06:55:47;;;;;;;8.80;4.80;;;;;;;4.42;100.00;101422.20;109324;1252;60060;-55
2023/12/05 06:58:14;;;;;;;8.40;4.50;;;;;;;4.66;100.00;101424.50;109306;1253;74770;-55
2023/12/05 07:00:42;;;;;;;8.50;5.40;;;;;;;4.91;100.00;101421.20;109341;1252;66172;-55
2023/12/05 07:03:12;;;;;;;7.90;5.00;;;;;;;5.14;100.00;101417.06;109324;1253;72689;-56
2023/12/05 07:05:40;;;;;;;8.10;4.80;;;;;;;5.32;100.00;101415.27;109309;1253;58925;-55
2023/12/05 07:08:08;;;;;;;9.00;5.40;;;;;;;5.47;100.00;101419.79;109292;1253;61150;-55
2023/12/05 07:10:36;;;;;;;7.50;4.90;;;;;;;5.67;100.00;101423.24;109355;1252;75651;-56
2023/12/05 07:13:03;;;;;;;8.90;5.30;;;;;;;5.88;100.00;101413.61;109352;1252;66898;-54
2023/12/05 07:15:31;;;;;;;7.10;4.60;;;;;;;5.99;100.00;101416.35;109357;1253;72777;-55
2023/12/05 07:17:58;;;;;;;7.10;4.80;;;;;;;6.00;100.00;101413.51;109332;1253;59027;-61
2023/12/05 07:20:26;;;;;;;8.70;4.70;;;;;;;5.97;100.00;101415.85;109344;1253;60048;-54
2023/12/05 07:22:54;;;;;;;11.40;7.00;;;;;;;5.99;100.00;101410.29;109344;1252;74749;-55
2023/12/05 07:25:21;;;;;;;9.90;5.30;;;;;;;5.98;100.00;101412.45;109324;1252;66077;-55
2023/12/05 07:27:49;;;;;;;7.60;5.30;;;;;;;6.11;100.00;101419.33;109345;1253;72738;-55
2023/12/05 07:30:16;;;;;;;8.50;5.20;;;;;;;6.16;100.00;101414.11;109256;1253;59034;-56
2023/12/05 07:32:44;;;;;;;7.50;4.70;;;;;;;6.16;100.00;101417.43;109351;1253;60253;-56
2023/12/05 07:35:12;;;;;;;9.80;6.00;;;;;;;6.15;100.00;101419.34;109329;1253;74941;-55
2023/12/05 07:37:39;;;;;;;9.30;6.20;;;;;;;6.17;100.00;101419.36;109380;1252;65827;-55
2023/12/05 07:40:08;;;;;;;7.10;5.10;;;;;;;6.15;100.00;101423.18;109414;1253;71426;-61
2023/12/05 07:42:35;;;;;;;8.10;5.00;;;;;;;6.15;100.00;101425.24;109304;1252;60363;-56
2023/12/05 07:45:05;;;;;;;8.60;5.00;;;;;;;6.15;100.00;101427.98;109244;1252;60353;-57
2023/12/05 07:47:32;;;;;;;7.00;5.00;;;;;;;6.14;100.00;101424.52;109353;1253;73441;-57
2023/12/05 07:50:00;;;;;;;7.50;5.20;;;;;;;6.10;100.00;101422.89;109294;1253;65656;-61
2023/12/05 07:52:27;;;;;;;7.80;5.90;;;;;;;6.12;100.00;101423.21;109323;1253;72691;-56
2023/12/05 07:54:56;;;;;;;10.00;6.30;;;;;;;6.26;100.00;101429.14;109292;1253;60615;-57
2023/12/05 07:57:24;;;;;;;8.20;5.90;;;;;;;6.41;100.00;101431.37;109339;1252;59464;-56
2023/12/05 07:59:51;;;;;;;8.40;5.40;;;;;;;6.50;100.00;101431.83;109346;1253;74760;-56
2023/12/05 08:02:21;;;;;;;8.50;6.10;;;;;;;6.60;100.00;101436.06;109279;1253;69042;-60
2023/12/05 08:04:48;;;;;;;8.50;6.20;;;;;;;6.68;100.00;101432.58;109345;1253;70531;-56
2023/12/05 08:07:17;;;;;;;8.90;6.30;;;;;;;6.79;100.00;101434.43;109327;1253;59399;-56
2023/12/05 08:09:44;;;;;;;8.60;6.20;;;;;;;7.08;100.00;101435.08;109359;1252;59871;-57
2023/12/05 08:12:13;;;;;;;10.10;6.20;;;;;;;7.33;99.59;101432.93;109346;1253;76309;-60
2023/12/05 08:14:41;;;;;;;7.60;5.20;;;;;;;7.50;95.57;101438.73;109378;1253;70552;-57
2023/12/05 08:17:08;;;;;;;7.80;5.50;;;;;;;7.59;90.33;101437.60;109350;1252;73984;-56
2023/12/05 08:19:36;;;;;;;9.20;5.80;;;;;;;7.56;84.92;101436.48;109322;1253;62182;-56
2023/12/05 08:22:04;;;;;;;6.30;4.60;;;;;;;7.35;81.27;101428.21;109370;1253;62096;-56
2023/12/05 08:24:32;;;;;;;9.80;5.50;;;;;;;7.09;79.90;101423.36;109281;1253;75276;-56
2023/12/05 08:27:00;;;;;;;7.70;5.10;;;;;;;6.78;79.75;101419.13;109351;1252;66889;-56
2023/12/05 08:29:27;;;;;;;6.90;4.50;;;;;;;6.61;82.97;101411.95;109375;1253;72728;-56
2023/12/05 08:31:55;;;;;;;7.80;5.50;;;;;;;6.44;81.31;101409.02;109326;1253;60752;-56
2023/12/05 08:34:23;;;;;;;7.90;4.80;;;;;;;6.27;83.60;101416.80;109270;1253;60496;-56
2023/12/05 08:36:51;;;;;;;7.60;5.00;;;;;;;6.34;85.37;101409.98;109363;1252;74744;-56
2023/12/05 08:39:18;;;;;;;6.90;4.80;;;;;;;6.46;86.71;101409.53;109363;1253;65968;-56
2023/12/05 08:41:46;;;;;;;6.80;4.30;;;;;;;6.61;85.91;101410.19;109341;1253;71233;-56
2023/12/05 08:44:14;;;;;;;6.60;4.80;;;;;;;6.66;82.88;101409.96;109293;1253;59307;-60
2023/12/05 08:46:41;;;;;;;6.70;5.10;;;;;;;6.65;80.95;101409.56;109300;1253;59410;-55
2023/12/05 08:49:09;;;;;;;6.90;4.80;;;;;;;6.43;76.57;101412.42;109377;1252;76792;-55
2023/12/05 08:51:37;;;;;;;11.50;6.60;;;;;;;6.04;76.25;101411.32;109335;1253;66270;-56
2023/12/05 08:54:05;;;;;;;8.30;5.40;;;;;;;5.66;79.66;101411.27;109307;1253;71539;-57
2023/12/05 08:56:32;;;;;;;8.40;4.80;;;;;;;5.38;85.00;101407.81;109299;1253;59196;-61
2023/12/05 08:59:00;;;;;;;7.10;4.60;;;;;;;5.24;88.87;101404.42;109341;1254;62087;-56
2023/12/05 09:01:28;;;;;;;6.80;4.10;;;;;;;5.26;94.64;101404.42;109317;1253;74652;-56
2023/12/05 09:03:56;;;;;;;5.80;4.00;;;;;;;5.49;99.01;101401.69;109426;1253;66982;-57
2023/12/05 09:06:23;;;;;;;6.20;4.20;;;;;;;5.87;99.16;101395.24;109392;1253;76113;-56
2023/12/05 09:08:51;;;;;;;8.80;4.20;;;;;;;6.19;93.71;101395.80;109329;1253;59531;-56
2023/12/05 09:11:19;;;;;;;5.90;4.00;;;;;;;6.33;84.29;101391.27;109380;1253;60481;-58
2023/12/05 09:13:47;;;;;;;7.00;4.10;;;;;;;6.35;81.20;101393.02;109277;1254;74733;-57
2023/12/05 09:16:14;;;;;;;5.70;3.70;;;;;;;6.27;78.47;101394.73;109356;1253;66950;-56
2023/12/05 09:18:42;;;;;;;7.10;4.60;;;;;;;6.21;79.19;101398.02;109340;1253;71382;-60
2023/12/05 09:21:10;;;;;;;6.50;4.20;;;;;;;6.14;77.09;101391.15;109336;1253;59276;-56
2023/12/05 09:23:38;;;;;;;7.10;5.00;;;;;;;5.96;76.03;101396.05;109369;1254;59166;-56
2023/12/05 09:26:05;;;;;;;7.40;4.60;;;;;;;5.65;76.08;101395.64;109385;1253;76631;-56
2023/12/05 09:28:34;;;;;;;7.50;5.10;;;;;;;5.37;79.04;101389.88;109463;1252;65797;-56
2023/12/05 09:31:02;;;;;;;6.90;4.40;;;;;;;5.17;83.50;101387.02;109334;1253;72738;-56
2023/12/05 09:33:29;;;;;;;7.20;4.70;;;;;;;5.07;87.14;101382.27;109322;1252;59378;-59
2023/12/05 09:35:57;;;;;;;8.30;5.60;;;;;;;5.12;93.42;101375.00;109354;1253;60130;-59
2023/12/05 09:38:25;;;;;;;8.70;5.90;;;;;;;5.31;95.58;101374.87;109361;1253;75261;-59
2023/12/05 09:40:52;;;;;;;8.50;5.60;;;;;;;5.48;94.54;101380.58;109301;1254;66937;-63
2023/12/05 09:43:21;;;;;;;10.60;5.60;;;;;;;5.64;96.15;101383.48;109256;1254;72920;-57
2023/12/05 09:45:53;;;;;;;8.90;5.60;;;;;;;5.79;94.69;101385.20;109373;1253;60188;-61
2023/12/05 09:48:21;;;;;;;9.90;6.20;;;;;;;5.83;93.87;101379.27;109385;1253;60926;-55
2023/12/05 09:50:49;;;;;;;9.00;5.90;;;;;;;5.84;89.87;101375.68;109390;1253;74739;-62
2023/12/05 09:53:16;;;;;;;8.50;5.80;;;;;;;5.69;92.23;101371.20;109407;1254;69258;-59
2023/12/05 09:55:44;;;;;;;10.10;6.50;;;;;;;5.68;94.78;101367.08;109379;1253;72791;-57
2023/12/05 09:58:12;;;;;;;8.50;5.40;;;;;;;5.66;94.02;101367.74;109260;1254;58957;-58
2023/12/05 10:00:39;;;;;;;10.90;7.20;;;;;;;5.59;92.04;101366.09;109368;1253;58988;-57
2023/12/05 10:03:09;;;;;;;10.60;7.40;;;;;;;5.50;90.91;101362.66;109346;1253;75157;-57
2023/12/05 10:05:37;;;;;;;7.80;6.10;;;;;;;5.44;93.08;101357.65;109281;1254;68461;-58
2023/12/05 10:08:05;;;;;;;8.80;5.80;;;;;;;5.37;91.01;101361.10;109410;1253;71252;-56
2023/12/05 10:10:33;;;;;;;7.80;5.30;;;;;;;5.22;90.27;101361.44;109417;1254;60774;-59
2023/12/05 10:13:01;;;;;;;8.20;5.20;;;;;;;5.06;91.33;101359.45;109322;1253;60118;-63
2023/12/05 10:15:29;;;;;;;9.70;6.60;;;;;;;4.86;92.22;101362.56;109202;1254;76498;-59
2023/12/05 10:17:57;;;;;;;7.80;5.40;;;;;;;4.59;93.05;101368.75;109180;1253;70663;-55
2023/12/05 10:20:25;;;;;;;6.60;4.40;;;;;;;4.22;94.51;101377.53;109248;1253;72792;-57
2023/12/05 10:22:53;;;;;;;6.80;4.60;;;;;;;3.89;97.09;101379.15;109403;1252;60327;-60
2023/12/05 10:25:21;;;;;;;8.70;5.60;;;;;;;3.65;99.92;101380.21;109340;1253;62752;-56
2023/12/05 10:28:08;;;;;;;10.40;6.80;;;;;;;3.45;100.00;101376.10;109386;1253;76726;-56
2023/12/05 10:30:39;;;;;;;11.50;6.70;;;;;;;3.29;100.00;101370.23;109398;1253;67799;-55
2023/12/05 10:33:11;;;;;;;8.80;5.80;;;;;;;3.28;100.00;101370.29;109426;1253;73442;-56
2023/12/05 10:35:44;;;;;;;7.80;5.30;;;;;;;3.46;100.00;101365.02;109345;1254;61468;-56
2023/12/05 10:38:13;;;;;;;8.70;5.00;;;;;;;3.79;100.00;101364.76;109381;1254;59131;-56
2023/12/05 10:40:54;;;;;;;10.20;4.60;;;;;;;4.14;100.00;101358.73;109379;1253;76816;-56
2023/12/05 10:43:23;;;;;;;8.30;5.40;;;;;;;4.36;100.00;101359.30;109414;1253;68840;-56
2023/12/05 10:45:51;;;;;;;9.20;6.20;;;;;;;4.38;100.00;101368.29;109445;1253;75222;-55
2023/12/05 10:48:19;;;;;;;7.50;4.70;;;;;;;4.36;100.00;101369.48;109376;1253;59729;-57
2023/12/05 10:50:47;;;;;;;8.30;5.50;;;;;;;4.33;100.00;101363.34;109368;1253;61152;-56
2023/12/05 10:53:15;;;;;;;7.70;4.90;;;;;;;4.40;100.00;101359.67;109405;1253;77328;-56
2023/12/05 10:55:43;;;;;;;9.50;6.40;;;;;;;4.54;100.00;101348.10;109395;1253;69296;-56
2023/12/05 10:58:11;;;;;;;8.50;5.40;;;;;;;4.69;100.00;101344.90;109369;1253;74826;-55
2023/12/05 11:00:39;;;;;;;7.40;4.70;;;;;;;4.84;100.00;101343.91;109361;1253;60350;-56
2023/12/05 11:03:07;;;;;;;8.30;4.70;;;;;;;4.95;100.00;101350.28;109392;1252;60100;-55
2023/12/05 11:05:35;;;;;;;8.20;5.40;;;;;;;5.05;100.00;101349.02;109438;1254;78161;-56
2023/12/05 11:08:04;;;;;;;8.10;5.00;;;;;;;5.23;100.00;101347.63;109424;1253;67008;-55
2023/12/05 11:10:31;;;;;;;9.60;5.40;;;;;;;5.39;100.00;101355.64;109390;1253;72737;-56
2023/12/05 11:13:00;;;;;;;7.50;5.10;;;;;;;5.46;100.00;101352.49;109269;1254;59411;-58
2023/12/05 11:15:29;;;;;;;8.70;5.00;;;;;;;5.56;100.00;101345.80;109379;1253;62428;-56